Soaring Guidance
Issued by NWS Reno, NV

Home | Current Version | Previous Version | Text Only | Print | Product List | Glossary On
Versions: 1 2 3 4 5 6 7 8 9 10 11 12 13
000
UXUS97 KREV 221357
SRGREV

SOARING FORECAST
NATIONAL WEATHER SERVICE - RENO NV
700 AM PDT FRI MAY 22 2015

THIS SOARING FORECAST IS FOR THE EASTERN SIERRA AND WESTERN NEVADA
WITH SPECIFIC INDICES FOR THE GREATER RENO AREA.

THIS FORECAST IS PREPARED DAILY BY 700 AM AND IS NOT UPDATED.

FOR CURRENT FLIGHT CONDITIONS...FORECASTS...AND ADVISORIES...ACCESS
YOUR LOCAL BRIEFING OUTLET OR FLIGHT SERVICE STATION.

*******************************************************************
LOCAL INDICES FOR RENO:                   TODAY     YESTERDAY
MAXIMUM TEMPERATURE AT RENO...(DEG F)...     66          66
TRIGGER TEMPERATURE...........(DEG F)...     54          55
   EXCEEDED YESTERDAY BY 955 AM PDT
MAXIMUM ALTITUDE..............(FT MSL)..  14800       13900
SOARING INDEX.................(FPM).....    804         747
FORECASTED K-INDEX.........VALID 18Z....     29          28
FORECASTED K-INDEX.........VALID 00Z....     32          30
FORECASTED LIFTED INDEX....VALID 18Z....      0           2
FORECASTED LIFTED INDEX....VALID 00Z....     -1          -1

AFTERNOON WINDS ALOFT FORECAST
MSL (FT) WIND/TEMP
9000  3016/+05
10000 3115/+02
12000 3313/-03
14000 1213/-07
16000 0713/-11
18000 0211/-16
24000 0409/-29
30000 0718/-46
34000 0617/-57
39000 0112/-56

SLIDE MOUNTAIN DATA:
     DATE       TIME     TEMP  DEWPT   RH         WIND (MPH)
                        (F)   (F)           | DIR  SPEED GUST
2015-05-22    06:00      31    31    100    | 010    6    7
2015-05-22    05:50      30    30    100    | 005    8   12
2015-05-22    05:30      31    31    100    | 002   10   14
2015-05-22    05:20      31    31    100    | 358   12   16

RENO TAF FORECAST:
KRNO 221120Z 2212/2312 VRB04KT P6SM VCSH SCT025 BKN050
     FM221900 33008G16KT P6SM VCSH BKN050 OVC090
     FM230400 VRB03KT P6SM SCT030 BKN060

CARSON CITY TAF FORECAST:
KCXP 221120Z 2212/2312 VRB04KT P6SM SCT030 BKN040
     FM221600 33007KT P6SM SCT025 BKN045
     FM221900 09008KT P6SM VCSH SCT030 BKN045
     FM230300 VRB04KT P6SM SCT035 BKN060

OUTLOOK FOR THE RENO-CARSON CITY-MINDEN AREA:
.SATURDAY...MOSTLY CLOUDY. ISOLATED SHOWERS IN THE MORNING...THEN
CHANCE OF SHOWERS AND THUNDERSTORMS IN THE AFTERNOON. HIGHS 65 TO
70. NORTHWEST WINDS 10 TO 15 MPH.

SUNRISE AND SUNSET
MAY 22 2015...........SUNRISE   540 AM PDT   SUNSET   812 PM PDT
MAY 23 2015...........SUNRISE   539 AM PDT   SUNSET   813 PM PDT



USA.gov is the U.S. government's official web portal to all federal, state and local government web resources and services.